KAPC

Napa County Airport

Napa, California, USA
METAR KAPC 242354Z 21009KT 10SM CLR 19/13 A2997 RMK AO2 SLP141 T01940133 10200 20133 56012
Observed Flight Rules
Apr-24 @ 23:54 UTC (an hour ago) Visual Flight Rules
Wind Visibility Clouds
210° at 9 knots 10 miles
  • Clear skies
Temperatures Readings
Current 19°C / 66°F
Dewpoint 13°C / 55°F
Humidity 68%
Altimeter 29.97" Hg
Pressure 1014.1 hPa
Elevation 13
METAR KAPC 242354Z 21009KT 10SM CLR 19/13 A2997 RMK AO2 SLP141 T01940133 10200 20133 56012
Observed Flight Rules
Apr-24 @ 23:54 UTC
(an hour ago)
VFR
Wind Visibility
210° at 9 knots 10 miles
Clouds
  • Clear skies
Temperature Dewpoint
19°C / 66°F 13°C / 55°F
Humidity Altimeter Pressure
68% 29.97" Hg 1014.1 hPa